createdAt,value
2023-02-23T00:02:08.512Z,2.20
2023-02-23T00:04:36.656Z,3.58
2023-02-23T00:07:06.464Z,2.28
2023-02-23T00:09:36.815Z,2.47
2023-02-23T00:12:09.756Z,2.67
2023-02-23T00:14:38.290Z,2.83
2023-02-23T00:17:14.693Z,2.55
2023-02-23T00:19:46.190Z,5.22
2023-02-23T00:22:13.837Z,10.68
2023-02-23T00:24:42.892Z,2.92
2023-02-23T00:27:12.812Z,4.93
2023-02-23T00:29:40.814Z,2.90
2023-02-23T00:32:08.889Z,1.55
2023-02-23T00:37:05.396Z,4.35
2023-02-23T00:39:33.405Z,2.58
2023-02-23T00:42:03.608Z,3.35
2023-02-23T00:44:33.949Z,1.90
2023-02-23T00:47:02.157Z,2.35
2023-02-23T00:49:29.796Z,3.58
2023-02-23T00:51:57.740Z,1.95
2023-02-23T00:54:25.648Z,3.97
2023-02-23T00:59:20.950Z,6.68
2023-02-23T01:01:49.332Z,2.67
2023-02-23T01:04:20.753Z,2.95
2023-02-23T01:06:48.730Z,4.57
2023-02-23T01:09:27.951Z,2.85
2023-02-23T01:11:57.229Z,6.90
2023-02-23T01:14:25.449Z,2.72
2023-02-23T01:16:53.076Z,4.25
2023-02-23T01:19:21.248Z,2.20
2023-02-23T01:21:49.834Z,4.70
2023-02-23T01:24:18.421Z,2.05
2023-02-23T01:26:46.847Z,3.95
2023-02-23T01:29:18.597Z,3.13
2023-02-23T01:31:48.335Z,4.65
2023-02-23T01:34:21.781Z,1.90
2023-02-23T01:36:49.546Z,4.57
2023-02-23T01:39:19.639Z,2.42
2023-02-23T01:41:47.852Z,3.33
2023-02-23T01:44:15.785Z,4.35
2023-02-23T01:46:45.829Z,4.18
2023-02-23T01:49:20.290Z,3.00
2023-02-23T01:52:02.669Z,1.98
2023-02-23T01:54:41.995Z,2.20
2023-02-23T01:57:14.642Z,1.08
2023-02-23T01:59:45.203Z,3.38
2023-02-23T02:02:14.546Z,3.15
2023-02-23T02:04:46.659Z,2.70
2023-02-23T02:07:19.295Z,2.67
2023-02-23T02:10:26.446Z,2.65
2023-02-23T02:12:56.300Z,2.60
2023-02-23T02:15:30.287Z,2.22
2023-02-23T02:18:23.539Z,2.92
2023-02-23T02:21:29.366Z,2.78
2023-02-23T02:24:22.587Z,7.07
2023-02-23T02:27:00.690Z,2.90
2023-02-23T02:32:17.956Z,2.92
2023-02-23T02:35:19.912Z,2.58
2023-02-23T02:38:12.578Z,2.95
2023-02-23T02:40:53.522Z,6.95
2023-02-23T02:43:58.250Z,2.25
2023-02-23T02:46:28.650Z,3.78
2023-02-23T02:49:02.143Z,4.82
2023-02-23T02:51:53.824Z,4.13
2023-02-23T02:54:21.333Z,2.88
2023-02-23T02:56:50.643Z,2.25
2023-02-23T02:59:39.102Z,4.07
2023-02-23T03:02:26.250Z,3.13
2023-02-23T03:05:12.907Z,2.08
2023-02-23T03:08:12.378Z,3.70
2023-02-23T03:11:16.332Z,4.63
2023-02-23T03:14:24.250Z,3.40
2023-02-23T03:17:10.574Z,2.13
2023-02-23T03:20:25.841Z,4.47
2023-02-23T03:23:44.614Z,2.22
2023-02-23T03:26:37.844Z,4.22
2023-02-23T03:29:52.209Z,1.02
2023-02-23T03:33:01.836Z,4.03
2023-02-23T03:36:08.460Z,1.67
2023-02-23T03:39:24.717Z,6.03
2023-02-23T03:42:14.382Z,5.25
2023-02-23T03:45:05.907Z,2.33
2023-02-23T03:47:57.160Z,3.67
2023-02-23T03:50:47.947Z,3.17
2023-02-23T03:53:39.358Z,2.55
2023-02-23T03:56:28.410Z,2.75
2023-02-23T03:59:20.095Z,3.15
2023-02-23T04:02:09.794Z,3.97
2023-02-23T04:04:56.764Z,2.72
2023-02-23T04:07:43.500Z,5.00
2023-02-23T04:10:30.046Z,2.08
2023-02-23T04:13:16.372Z,2.67
2023-02-23T04:15:54.979Z,3.20
2023-02-23T04:18:26.315Z,4.53
2023-02-23T04:20:55.761Z,3.97
2023-02-23T04:23:24.465Z,3.55
2023-02-23T04:25:54.291Z,0.88
2023-02-23T04:28:24.137Z,1.75
2023-02-23T04:30:53.930Z,2.63
2023-02-23T04:33:22.382Z,9.57
2023-02-23T04:35:51.961Z,4.65
2023-02-23T04:38:20.043Z,3.00
2023-02-23T04:43:15.780Z,2.20
2023-02-23T04:45:44.663Z,1.33
2023-02-23T04:48:12.278Z,2.25
2023-02-23T04:50:40.059Z,5.60
2023-02-23T04:53:07.924Z,1.73
2023-02-23T04:55:37.160Z,2.45
2023-02-23T04:58:04.825Z,3.72
2023-02-23T05:00:34.095Z,3.63
2023-02-23T05:03:05.285Z,1.45
2023-02-23T05:05:33.052Z,9.98
2023-02-23T05:08:01.130Z,4.07
2023-02-23T05:12:57.519Z,5.13
2023-02-23T05:15:25.105Z,3.72
2023-02-23T05:17:54.034Z,7.65
2023-02-23T05:20:22.076Z,7.75
2023-02-23T05:22:49.670Z,11.10
2023-02-23T05:25:17.621Z,8.43
2023-02-23T05:27:45.072Z,7.22
2023-02-23T05:30:13.476Z,8.90
2023-02-23T05:32:41.212Z,6.53
2023-02-23T05:35:10.499Z,7.72
2023-02-23T05:37:38.119Z,8.77
2023-02-23T05:40:06.250Z,7.03
2023-02-23T05:45:01.532Z,13.32
2023-02-23T05:47:29.129Z,12.93
2023-02-23T05:49:57.018Z,11.02
2023-02-23T05:52:25.090Z,1.75
2023-02-23T05:57:20.023Z,11.73
2023-02-23T05:59:47.540Z,8.32
2023-02-23T06:02:15.166Z,7.18
2023-02-23T06:04:43.089Z,3.53
2023-02-23T06:07:10.643Z,4.20
2023-02-23T06:09:38.410Z,10.57
2023-02-23T06:12:06.280Z,9.20
2023-02-23T06:14:35.511Z,6.72
2023-02-23T06:17:03.422Z,7.00
2023-02-23T06:19:31.690Z,13.00
2023-02-23T06:21:59.281Z,5.22
2023-02-23T06:24:26.910Z,3.53
2023-02-23T06:26:54.975Z,7.82
2023-02-23T06:29:23.107Z,9.20
2023-02-23T06:34:19.033Z,6.05
2023-02-23T06:36:46.923Z,8.75
2023-02-23T06:39:14.444Z,8.02
2023-02-23T06:41:42.233Z,7.82
2023-02-23T06:44:10.364Z,10.60
2023-02-23T06:49:05.613Z,2.05
2023-02-23T06:51:33.477Z,6.00
2023-02-23T06:54:00.973Z,16.90
2023-02-23T06:56:28.844Z,8.45
2023-02-23T06:58:56.349Z,15.05
2023-02-23T07:01:24.235Z,3.30
2023-02-23T07:03:51.971Z,4.95
2023-02-23T07:06:19.553Z,5.10
2023-02-23T07:08:47.196Z,8.32
2023-02-23T07:11:16.087Z,6.65
2023-02-23T07:13:43.858Z,6.03
2023-02-23T07:16:12.294Z,9.07
2023-02-23T07:18:39.871Z,6.28
2023-02-23T07:21:07.993Z,5.28
2023-02-23T07:26:03.267Z,3.25
2023-02-23T07:28:30.971Z,7.72
2023-02-23T07:30:59.215Z,3.88
2023-02-23T07:33:27.381Z,10.95
2023-02-23T07:35:54.894Z,2.60
2023-02-23T07:38:22.468Z,10.60
2023-02-23T07:40:51.355Z,7.50
2023-02-23T07:43:22.028Z,8.32
2023-02-23T07:45:51.198Z,10.23
2023-02-23T07:48:19.108Z,8.05
2023-02-23T07:50:46.993Z,7.82
2023-02-23T07:53:15.224Z,2.35
2023-02-23T07:55:42.968Z,4.05
2023-02-23T07:58:10.567Z,5.75
2023-02-23T08:00:40.277Z,3.55
2023-02-23T08:03:08.263Z,9.57
2023-02-23T08:05:36.790Z,7.15
2023-02-23T08:08:04.588Z,7.10
2023-02-23T08:10:32.590Z,8.02
2023-02-23T08:15:28.276Z,4.18
2023-02-23T08:17:56.247Z,8.55
2023-02-23T08:20:24.643Z,9.25
2023-02-23T08:22:56.042Z,9.88
2023-02-23T08:25:24.116Z,6.72
2023-02-23T08:27:52.784Z,4.60
2023-02-23T08:30:24.554Z,5.95
2023-02-23T08:32:52.377Z,6.90
2023-02-23T08:35:20.332Z,3.65
2023-02-23T08:40:15.901Z,9.93
2023-02-23T08:45:13.673Z,10.70
2023-02-23T08:47:41.701Z,9.43
2023-02-23T08:52:39.587Z,6.70
2023-02-23T08:55:08.392Z,8.18
2023-02-23T08:57:36.355Z,7.53
2023-02-23T09:00:14.132Z,5.35
2023-02-23T09:02:42.879Z,8.38
2023-02-23T09:05:10.789Z,5.97
2023-02-23T09:10:07.952Z,4.95
2023-02-23T09:12:35.566Z,4.00
2023-02-23T09:15:03.456Z,8.18
2023-02-23T09:17:31.116Z,7.00
2023-02-23T09:19:58.691Z,1.45
2023-02-23T09:22:26.738Z,7.40
2023-02-23T09:24:54.244Z,8.20
2023-02-23T09:27:21.852Z,3.88
2023-02-23T09:29:49.687Z,2.97
2023-02-23T09:32:17.636Z,8.10
2023-02-23T09:34:45.890Z,9.63
2023-02-23T09:37:13.742Z,4.53
2023-02-23T09:39:41.316Z,7.93
2023-02-23T09:42:36.763Z,8.68
2023-02-23T09:45:25.889Z,6.72
2023-02-23T09:48:09.602Z,4.85
2023-02-23T09:50:39.634Z,10.93
2023-02-23T09:53:16.353Z,9.10
2023-02-23T09:55:45.177Z,4.70
2023-02-23T09:58:23.902Z,7.55
2023-02-23T10:01:11.279Z,6.85
2023-02-23T10:03:48.980Z,2.80
2023-02-23T10:06:18.802Z,8.70
2023-02-23T10:08:46.865Z,5.10
2023-02-23T10:11:29.835Z,3.75
2023-02-23T10:14:08.297Z,7.22
2023-02-23T10:16:43.200Z,2.22
2023-02-23T10:19:20.712Z,5.70
2023-02-23T10:22:02.838Z,4.35
2023-02-23T10:24:43.319Z,5.63
2023-02-23T10:27:19.302Z,5.22
2023-02-23T10:29:51.671Z,5.25
2023-02-23T10:32:36.848Z,5.43
2023-02-23T10:35:15.565Z,3.08
2023-02-23T10:37:43.658Z,9.40
2023-02-23T10:42:47.010Z,7.07
2023-02-23T10:45:22.725Z,6.07
2023-02-23T10:47:57.436Z,3.80
2023-02-23T10:50:29.702Z,6.22
2023-02-23T10:53:18.603Z,4.70
2023-02-23T10:55:48.007Z,5.10
2023-02-23T10:58:20.029Z,4.88
2023-02-23T11:00:52.564Z,7.53
2023-02-23T11:03:43.206Z,6.75
2023-02-23T11:06:30.069Z,5.45
2023-02-23T11:08:58.461Z,7.22
2023-02-23T11:11:28.944Z,6.53
2023-02-23T11:13:57.748Z,3.22
2023-02-23T11:16:30.068Z,6.30
2023-02-23T11:18:58.197Z,13.73
2023-02-23T11:21:34.251Z,5.85
2023-02-23T11:24:30.789Z,4.07
2023-02-23T11:27:07.007Z,4.90
2023-02-23T11:29:36.218Z,4.97
2023-02-23T11:32:10.735Z,3.97
2023-02-23T11:34:43.648Z,7.88
2023-02-23T11:37:26.392Z,3.70
2023-02-23T11:39:59.552Z,5.30
2023-02-23T11:42:36.102Z,4.50
2023-02-23T11:45:20.697Z,2.95
2023-02-23T11:47:54.203Z,4.95
2023-02-23T11:50:28.038Z,4.45
2023-02-23T11:53:04.507Z,7.38
2023-02-23T11:55:33.955Z,6.75
2023-02-23T11:58:22.758Z,2.80
2023-02-23T12:01:12.480Z,2.33
2023-02-23T12:03:55.813Z,5.53
2023-02-23T12:06:30.762Z,4.78
2023-02-23T12:09:02.915Z,2.50
2023-02-23T12:11:37.546Z,4.47
2023-02-23T12:14:50.043Z,4.65
2023-02-23T12:17:28.396Z,5.05
2023-02-23T12:20:11.475Z,1.67
2023-02-23T12:22:43.235Z,7.07
2023-02-23T12:25:36.039Z,1.95
2023-02-23T12:28:21.512Z,6.47
2023-02-23T12:30:55.453Z,4.32
2023-02-23T12:33:32.962Z,9.85
2023-02-23T12:36:09.558Z,3.70
2023-02-23T12:38:48.730Z,4.57
2023-02-23T12:41:45.082Z,5.25
2023-02-23T12:44:42.772Z,1.17
2023-02-23T12:50:14.415Z,3.83
2023-02-23T12:52:53.988Z,3.97
2023-02-23T12:55:58.409Z,4.00
2023-02-23T12:58:47.017Z,3.67
2023-02-23T13:01:50.077Z,2.17
2023-02-23T13:04:26.875Z,4.35
2023-02-23T13:07:05.058Z,4.20
2023-02-23T13:09:38.772Z,4.07
2023-02-23T13:12:06.835Z,3.55
2023-02-23T13:14:58.867Z,9.25
2023-02-23T13:17:36.680Z,3.80
2023-02-23T13:20:04.653Z,7.00
2023-02-23T13:22:46.262Z,0.80
2023-02-23T13:25:36.976Z,3.88
2023-02-23T13:28:10.255Z,2.47
2023-02-23T13:30:42.425Z,1.80
2023-02-23T13:33:32.203Z,2.25
2023-02-23T13:36:06.409Z,7.20
2023-02-23T13:41:42.109Z,3.13
2023-02-23T13:44:42.199Z,5.15
2023-02-23T13:47:14.317Z,3.95
2023-02-23T13:50:04.921Z,3.05
2023-02-23T13:52:40.033Z,5.78
2023-02-23T13:55:26.207Z,4.43
2023-02-23T13:57:57.568Z,2.28
2023-02-23T14:00:25.525Z,2.63
2023-02-23T14:02:53.737Z,1.67
2023-02-23T14:05:31.734Z,1.08
2023-02-23T14:10:43.926Z,3.30
2023-02-23T14:13:15.659Z,3.90
2023-02-23T14:15:48.435Z,2.67
2023-02-23T14:18:19.096Z,2.28
2023-02-23T14:21:21.911Z,1.90
2023-02-23T14:24:21.619Z,3.10
2023-02-23T14:27:04.876Z,2.88
2023-02-23T14:29:40.632Z,3.88
2023-02-23T14:32:11.480Z,2.22
2023-02-23T14:34:50.533Z,4.28
2023-02-23T14:37:37.191Z,3.20
2023-02-23T14:40:37.741Z,3.97
2023-02-23T14:43:31.809Z,6.68
2023-02-23T14:46:06.000Z,2.00
2023-02-23T14:48:36.651Z,2.83
2023-02-23T14:51:42.690Z,4.38
2023-02-23T14:54:32.071Z,1.42
2023-02-23T14:57:02.078Z,8.95
2023-02-23T14:59:40.649Z,4.05
2023-02-23T15:02:20.580Z,0.95
2023-02-23T15:04:48.239Z,1.65
2023-02-23T15:07:28.097Z,4.55
2023-02-23T15:09:58.709Z,5.40
2023-02-23T15:12:35.891Z,2.17
2023-02-23T15:15:10.179Z,3.40
2023-02-23T15:17:47.860Z,1.08
2023-02-23T15:20:18.758Z,6.32
2023-02-23T15:22:51.669Z,3.95
2023-02-23T15:25:23.898Z,2.13
2023-02-23T15:27:52.016Z,2.25
2023-02-23T15:30:20.095Z,4.10
2023-02-23T15:32:48.475Z,4.15
2023-02-23T15:35:16.198Z,3.00
2023-02-23T15:37:52.776Z,1.58
2023-02-23T15:40:30.168Z,3.15
2023-02-23T15:43:01.692Z,3.08
2023-02-23T15:45:40.368Z,3.28
2023-02-23T15:48:17.291Z,4.05
2023-02-23T15:50:50.776Z,2.30
2023-02-23T15:53:38.879Z,2.15
2023-02-23T15:56:23.566Z,2.85
2023-02-23T15:58:56.943Z,4.90
2023-02-23T16:01:30.447Z,4.80
2023-02-23T16:04:12.252Z,5.53
2023-02-23T16:06:53.901Z,5.78
2023-02-23T16:09:22.305Z,2.20
2023-02-23T16:11:55.857Z,2.30
2023-02-23T16:14:25.293Z,2.25
2023-02-23T16:17:09.882Z,1.08
2023-02-23T16:19:41.594Z,4.75
2023-02-23T16:22:20.331Z,5.72
2023-02-23T16:24:57.837Z,2.72
2023-02-23T16:27:27.300Z,4.23
2023-02-23T16:30:16.984Z,2.47
2023-02-23T16:32:46.166Z,2.65
2023-02-23T16:35:19.578Z,5.10
2023-02-23T16:38:01.494Z,3.38
2023-02-23T16:40:30.542Z,2.78
2023-02-23T16:42:59.623Z,9.73
2023-02-23T16:45:29.663Z,1.98
2023-02-23T16:48:02.355Z,2.28
2023-02-23T16:50:30.963Z,2.13
2023-02-23T16:52:58.736Z,7.72
2023-02-23T16:55:28.700Z,3.28
2023-02-23T16:58:02.650Z,3.78
2023-02-23T17:00:32.702Z,7.05
2023-02-23T17:03:01.067Z,3.40
2023-02-23T17:05:30.193Z,9.95
2023-02-23T17:07:59.342Z,2.70
2023-02-23T17:10:31.902Z,6.60
2023-02-23T17:13:08.808Z,2.85
2023-02-23T17:15:39.401Z,3.40
2023-02-23T17:18:07.032Z,8.27
2023-02-23T17:20:34.894Z,7.03
2023-02-23T17:23:03.418Z,3.28
2023-02-23T17:25:37.957Z,3.72
2023-02-23T17:28:10.652Z,5.32
2023-02-23T17:33:07.912Z,4.95
2023-02-23T17:35:37.899Z,6.30
2023-02-23T17:38:07.261Z,3.30
2023-02-23T17:40:36.461Z,4.25
2023-02-23T17:43:07.645Z,4.82
2023-02-23T17:45:35.781Z,5.90
2023-02-23T17:48:04.496Z,2.83
2023-02-23T17:50:32.129Z,4.85
2023-02-23T17:53:00.644Z,7.82
2023-02-23T17:55:28.354Z,6.25
2023-02-23T17:57:56.368Z,5.10
2023-02-23T18:00:25.090Z,9.10
2023-02-23T18:02:52.723Z,7.63
2023-02-23T18:05:20.802Z,6.03
2023-02-23T18:07:48.911Z,9.93
2023-02-23T18:10:17.876Z,10.75
2023-02-23T18:12:45.865Z,7.63
2023-02-23T18:15:13.869Z,12.40
2023-02-23T18:17:41.454Z,8.82
2023-02-23T18:20:09.820Z,17.88
2023-02-23T18:22:39.392Z,15.90
2023-02-23T18:25:07.474Z,18.63
2023-02-23T18:27:35.649Z,17.83
2023-02-23T18:30:03.903Z,14.82
2023-02-23T18:32:31.682Z,14.88
2023-02-23T18:35:00.371Z,16.13
2023-02-23T18:37:29.769Z,11.77
2023-02-23T18:39:59.313Z,11.27
2023-02-23T18:42:28.679Z,12.38
2023-02-23T18:44:56.546Z,7.72
2023-02-23T18:47:24.412Z,11.85
2023-02-23T18:49:53.115Z,13.10
2023-02-23T18:52:21.624Z,11.35
2023-02-23T18:54:49.632Z,10.05
2023-02-23T18:57:17.044Z,6.57
2023-02-23T18:59:46.820Z,10.93
2023-02-23T19:02:15.378Z,9.02
2023-02-23T19:04:43.971Z,9.13
2023-02-23T19:07:14.678Z,10.38
2023-02-23T19:09:44.055Z,8.70
2023-02-23T19:12:11.891Z,9.90
2023-02-23T19:14:49.222Z,16.05
2023-02-23T19:17:17.964Z,13.40
2023-02-23T19:19:45.796Z,11.68
2023-02-23T19:22:13.682Z,13.50
2023-02-23T19:24:45.609Z,11.77
2023-02-23T19:27:13.224Z,10.63
2023-02-23T19:29:41.109Z,10.32
2023-02-23T19:32:09.671Z,11.07
2023-02-23T19:34:39.907Z,16.80
2023-02-23T19:37:09.068Z,12.50
2023-02-23T19:39:37.015Z,13.90
2023-02-23T19:42:05.172Z,14.48
2023-02-23T19:44:38.937Z,10.80
2023-02-23T19:47:06.608Z,12.87
2023-02-23T19:49:35.525Z,16.47
2023-02-23T19:52:03.716Z,16.25
2023-02-23T19:54:34.097Z,11.38
2023-02-23T19:57:05.184Z,6.25
2023-02-23T19:59:33.335Z,9.00
2023-02-23T20:02:00.955Z,8.27
2023-02-23T20:04:29.662Z,3.83
2023-02-23T20:06:57.232Z,12.23
2023-02-23T20:09:24.829Z,7.80
2023-02-23T20:11:52.492Z,14.73
2023-02-23T20:14:21.465Z,15.02
2023-02-23T20:16:49.154Z,10.30
2023-02-23T20:19:19.682Z,13.90
2023-02-23T20:21:49.646Z,10.15
2023-02-23T20:24:18.495Z,12.60
2023-02-23T20:26:46.723Z,14.57
2023-02-23T20:31:51.320Z,12.75
2023-02-23T20:34:24.120Z,15.85
2023-02-23T20:36:54.016Z,15.65
2023-02-23T20:39:26.877Z,12.52
2023-02-23T20:41:54.698Z,19.05
2023-02-23T20:44:24.614Z,19.52
2023-02-23T20:46:52.494Z,14.30
2023-02-23T20:49:20.579Z,15.60
2023-02-23T20:51:48.712Z,17.33
2023-02-23T20:54:16.694Z,13.75
2023-02-23T20:59:13.564Z,17.98
2023-02-23T21:01:42.785Z,17.77
2023-02-23T21:04:13.149Z,16.75
2023-02-23T21:06:41.205Z,11.25
2023-02-23T21:09:17.857Z,13.98
2023-02-23T21:11:46.428Z,19.80
2023-02-23T21:14:15.040Z,13.55
2023-02-23T21:16:46.670Z,8.88
2023-02-23T21:19:17.704Z,8.80
2023-02-23T21:21:48.049Z,8.25
2023-02-23T21:24:17.315Z,12.95
2023-02-23T21:26:45.694Z,5.25
2023-02-23T21:29:14.898Z,8.07
2023-02-23T21:31:43.930Z,6.53
2023-02-23T21:34:12.204Z,7.47
2023-02-23T21:39:08.038Z,8.90
2023-02-23T21:41:37.959Z,10.40
2023-02-23T21:44:08.065Z,7.78
2023-02-23T21:46:36.043Z,9.15
2023-02-23T21:49:07.309Z,10.50
2023-02-23T21:51:36.664Z,11.75
2023-02-23T21:54:05.591Z,11.02
2023-02-23T21:56:34.908Z,7.97
2023-02-23T21:59:04.014Z,7.18
2023-02-23T22:01:37.278Z,12.40
2023-02-23T22:04:06.957Z,11.73
2023-02-23T22:06:40.620Z,6.85
2023-02-23T22:09:11.004Z,4.93
2023-02-23T22:11:43.772Z,6.95
2023-02-23T22:14:16.513Z,7.93
2023-02-23T22:16:44.915Z,12.82
2023-02-23T22:21:44.578Z,12.25
2023-02-23T22:24:13.872Z,8.90
2023-02-23T22:26:55.108Z,9.40
2023-02-23T22:29:24.895Z,8.57
2023-02-23T22:31:52.887Z,14.60
2023-02-23T22:36:48.744Z,14.38
2023-02-23T22:39:18.793Z,11.00
2023-02-23T22:41:47.591Z,4.40
2023-02-23T22:44:18.314Z,10.15
2023-02-23T22:46:48.607Z,10.48
2023-02-23T22:49:19.973Z,7.90
2023-02-23T22:51:48.014Z,6.20
2023-02-23T22:54:15.795Z,10.25
2023-02-23T22:56:44.163Z,11.32
2023-02-23T22:59:12.058Z,8.50
2023-02-23T23:01:40.039Z,6.55
2023-02-23T23:04:11.044Z,7.75
2023-02-23T23:06:40.577Z,12.05
2023-02-23T23:09:15.173Z,13.57
2023-02-23T23:11:43.123Z,9.23
2023-02-23T23:14:12.006Z,8.43
2023-02-23T23:16:47.870Z,7.70
2023-02-23T23:19:26.334Z,6.80
2023-02-23T23:21:55.826Z,8.52
2023-02-23T23:24:25.054Z,9.43
2023-02-23T23:26:55.585Z,10.45
2023-02-23T23:29:29.541Z,7.05
2023-02-23T23:31:57.487Z,9.23
2023-02-23T23:36:53.417Z,7.40
2023-02-23T23:41:50.438Z,10.80
2023-02-23T23:44:21.319Z,8.38
2023-02-23T23:46:52.936Z,9.75
2023-02-23T23:49:22.994Z,10.05
2023-02-23T23:51:52.717Z,8.20
2023-02-23T23:54:28.227Z,7.85
2023-02-23T23:56:56.917Z,3.72
2023-02-23T23:59:26.592Z,5.28
